Time;durP1;ratioP1;P1;durP2;ratioP2;P2;SDS_P1;SDS_P2;PMS_P1;PMS_P2;Temp;Humidity;BMP_temperature;BMP_pressure;BME280_temperature;BME280_humidity;BME280_pressure;Samples;Min_cycle;Max_cycle;Signal;HPM_P1;HPM_P2
2023/01/17 00:02:05;;;;;;;;;;;;;;;28.80;24.52;99846.09;5070010;28;1070;-22
2023/01/17 00:09:59;;;;;;;;;;;;;;;28.30;25.46;99829.41;5071260;28;1178;-22
2023/01/17 00:12:28;;;;;;;;;;;;;;;28.62;24.55;99836.81;5056913;28;1910;-22
2023/01/17 00:14:54;;;;;;;;;;;;;;;28.42;25.23;99828.78;5057819;28;1126;-22
2023/01/17 00:17:20;;;;;;;;;;;;;;;28.27;25.56;99837.13;5057114;28;1088;-21
2023/01/17 01:34:09;;;;;;;;;;;;;;;27.76;24.36;99805.22;5074944;28;1135;-22
2023/01/17 01:36:34;;;;;;;;;;;;;;;28.67;23.75;99790.16;5075958;28;1230;-22
2023/01/17 01:39:00;;;;;;;;;;;;;;;28.33;23.63;99785.75;5076258;28;1301;-23
2023/01/17 01:41:25;;;;;;;;;;;;;;;27.80;24.40;99797.53;5075602;28;1247;-22
2023/01/17 01:43:51;;;;;;;;;;;;;;;28.03;24.31;99793.53;5076014;28;1365;-22
2023/01/17 01:46:16;;;;;;;;;;;;;;;27.91;24.62;99793.34;5074069;28;1271;-22
2023/01/17 01:48:49;;;;;;;;;;;;;;;28.13;24.33;99780.38;5072983;28;1252;-23
2023/01/17 01:51:16;;;;;;;;;;;;;;;28.68;23.65;99773.69;5072994;28;1274;-23
2023/01/17 01:53:42;;;;;;;;;;;;;;;27.99;23.78;99772.31;5057944;28;1902;-22
2023/01/17 01:56:08;;;;;;;;;;;;;;;28.11;24.09;99777.91;5074021;28;1251;-22
2023/01/17 01:58:35;;;;;;;;;;;;;;;28.53;24.04;99781.31;5055662;28;1204;-22
2023/01/17 02:01:01;;;;;;;;;;;;;;;28.41;23.80;99768.44;5058156;28;1304;-23
2023/01/17 02:03:26;;;;;;;;;;;;;;;27.80;24.54;99778.59;5075489;28;1227;-22
2023/01/17 02:05:51;;;;;;;;;;;;;;;28.13;24.51;99764.16;5057981;28;1278;-23
2023/01/17 02:08:18;;;;;;;;;;;;;;;28.50;23.77;99760.91;5073009;28;1250;-22
2023/01/17 02:10:43;;;;;;;;;;;;;;;28.16;23.94;99757.50;5041555;28;1147;-22
2023/01/17 02:13:08;;;;;;;;;;;;;;;27.62;24.72;99756.59;5055327;28;1971;-23
2023/01/17 02:15:52;;;;;;;;;;;;;;;28.13;24.39;99761.47;5055974;28;1215;-22
2023/01/17 02:18:17;;;;;;;;;;;;;;;28.26;24.29;99759.75;5053612;28;1180;-23
2023/01/17 02:20:49;;;;;;;;;;;;;;;28.62;23.92;99747.53;5055460;28;1310;-22
2023/01/17 02:23:33;;;;;;;;;;;;;;;28.11;24.08;99742.75;5059285;28;1207;-22
2023/01/17 02:26:09;;;;;;;;;;;;;;;27.68;24.67;99748.66;5059457;28;1219;-22
2023/01/17 02:29:05;;;;;;;;;;;;;;;28.44;24.01;99749.09;5059219;28;1157;-22
2023/01/17 02:31:49;;;;;;;;;;;;;;;28.61;23.65;99748.59;5001175;28;1079;-22
2023/01/17 02:34:24;;;;;;;;;;;;;;;27.70;24.83;99746.63;5054479;28;1160;-23
2023/01/17 02:36:52;;;;;;;;;;;;;;;27.95;24.66;99741.38;5041575;28;1382;-23
2023/01/17 02:39:21;;;;;;;;;;;;;;;27.81;24.77;99729.75;5055024;28;1204;-24
2023/01/17 02:41:49;;;;;;;;;;;;;;;28.12;24.35;99730.06;5040865;28;1319;-22
2023/01/17 02:44:15;;;;;;;;;;;;;;;28.48;24.01;99725.13;5035850;28;1306;-22
2023/01/17 02:46:47;;;;;;;;;;;;;;;28.01;24.69;99722.63;5040593;28;1050;-22
2023/01/17 02:49:13;;;;;;;;;;;;;;;28.19;24.68;99713.81;5059010;28;1231;-22
2023/01/17 02:51:41;;;;;;;;;;;;;;;28.36;24.64;99711.47;5029986;28;1898;-21
2023/01/17 02:54:19;;;;;;;;;;;;;;;28.46;24.07;99703.69;5027009;28;1108;-22
2023/01/17 02:56:50;;;;;;;;;;;;;;;28.02;24.90;99698.09;5052051;28;1072;-22
2023/01/17 02:59:34;;;;;;;;;;;;;;;28.32;24.68;99691.28;5039651;28;1099;-22
2023/01/17 03:02:06;;;;;;;;;;;;;;;28.51;24.35;99700.34;5052428;28;1218;-22
2023/01/17 03:04:39;;;;;;;;;;;;;;;28.35;24.12;99709.81;5050197;28;1141;-21
2023/01/17 03:07:06;;;;;;;;;;;;;;;28.29;24.62;99713.34;5035957;28;1076;-22
2023/01/17 03:09:31;;;;;;;;;;;;;;;28.20;24.59;99716.31;5051408;28;1187;-22
2023/01/17 03:11:57;;;;;;;;;;;;;;;28.22;24.75;99705.28;5047625;28;1973;-21
2023/01/17 03:14:22;;;;;;;;;;;;;;;28.49;24.37;99705.16;5060964;28;1179;-23
2023/01/17 03:16:48;;;;;;;;;;;;;;;28.31;24.69;99700.44;5065573;28;1159;-22
2023/01/17 03:19:14;;;;;;;;;;;;;;;28.48;24.49;99703.47;5078593;28;1063;-22
2023/01/17 03:21:40;;;;;;;;;;;;;;;28.53;24.41;99708.25;5064875;28;1246;-22
2023/01/17 03:24:05;;;;;;;;;;;;;;;28.49;24.08;99694.34;5066271;28;1066;-21
2023/01/17 03:26:30;;;;;;;;;;;;;;;28.20;24.70;99699.25;5077562;28;1230;-22
2023/01/17 03:28:56;;;;;;;;;;;;;;;28.53;24.35;99705.56;5065709;28;1046;-22
2023/01/17 03:31:21;;;;;;;;;;;;;;;28.41;24.38;99702.72;5066396;28;1095;-22
2023/01/17 03:33:46;;;;;;;;;;;;;;;28.44;24.26;99702.28;5076445;28;1902;-22
2023/01/17 03:36:12;;;;;;;;;;;;;;;28.36;24.40;99700.66;5078057;28;1031;-21
2023/01/17 03:38:37;;;;;;;;;;;;;;;28.44;24.59;99699.56;5076415;28;1134;-22
2023/01/17 03:41:02;;;;;;;;;;;;;;;28.51;24.48;99697.63;5070818;28;1019;-22
2023/01/17 03:43:28;;;;;;;;;;;;;;;28.52;24.14;99706.59;5071489;28;1210;-22
2023/01/17 03:46:00;;;;;;;;;;;;;;;28.31;24.40;99692.34;5058744;28;849;-23
2023/01/17 03:48:25;;;;;;;;;;;;;;;28.48;24.57;99688.09;5058298;28;1004;-23
2023/01/17 03:50:50;;;;;;;;;;;;;;;28.66;24.30;99686.50;5065865;28;1039;-22
2023/01/17 03:53:15;;;;;;;;;;;;;;;28.48;24.54;99693.50;5077988;28;1955;-22
2023/01/17 03:55:41;;;;;;;;;;;;;;;28.40;24.82;99693.75;5077721;28;1094;-22
2023/01/17 03:58:06;;;;;;;;;;;;;;;28.46;24.38;99690.16;5049201;28;1234;-22
2023/01/17 04:00:31;;;;;;;;;;;;;;;28.65;24.35;99706.50;5065849;28;1247;-22
2023/01/17 04:02:57;;;;;;;;;;;;;;;28.36;24.80;99700.66;5077181;28;1063;-22
2023/01/17 04:05:22;;;;;;;;;;;;;;;28.52;24.74;99707.41;5070034;28;1074;-22
2023/01/17 04:07:47;;;;;;;;;;;;;;;28.24;25.12;99698.59;5058480;28;1130;-22
2023/01/17 04:10:12;;;;;;;;;;;;;;;28.59;24.28;99704.66;5057409;28;1072;-22
2023/01/17 04:12:38;;;;;;;;;;;;;;;28.57;23.98;99714.88;5057985;28;1913;-22
2023/01/17 04:15:03;;;;;;;;;;;;;;;28.39;24.28;99711.03;5077434;28;1000;-22
2023/01/17 04:17:28;;;;;;;;;;;;;;;28.23;25.12;99710.47;5063842;28;1118;-22
2023/01/17 04:19:54;;;;;;;;;;;;;;;28.28;25.20;99709.81;5077818;28;1164;-22
2023/01/17 04:22:19;;;;;;;;;;;;;;;28.51;24.41;99711.16;5077261;28;1067;-22
2023/01/17 04:24:44;;;;;;;;;;;;;;;28.23;25.51;99702.34;5077019;28;1092;-22
2023/01/17 04:27:12;;;;;;;;;;;;;;;28.44;24.98;99708.53;5077116;28;1051;-21
2023/01/17 04:29:38;;;;;;;;;;;;;;;28.14;24.67;99705.53;5070897;28;979;-22
2023/01/17 04:32:03;;;;;;;;;;;;;;;28.14;24.06;99700.94;5072806;28;1894;-21
2023/01/17 04:34:28;;;;;;;;;;;;;;;28.33;23.49;99703.78;5064085;28;853;-21
2023/01/17 04:36:54;;;;;;;;;;;;;;;28.53;23.07;99706.34;5077232;28;1113;-22
2023/01/17 04:39:19;;;;;;;;;;;;;;;27.20;23.57;99702.84;5075721;28;1120;-20
2023/01/17 04:41:44;;;;;;;;;;;;;;;25.56;25.15;99706.06;5046171;28;1159;-21
2023/01/17 04:44:10;;;;;;;;;;;;;;;27.61;24.16;99710.88;5063852;28;1095;-21
2023/01/17 04:46:35;;;;;;;;;;;;;;;27.97;23.04;99711.41;5076342;28;1063;-21
2023/01/17 04:49:00;;;;;;;;;;;;;;;28.08;23.08;99708.03;5077097;28;1105;-22
2023/01/17 04:51:25;;;;;;;;;;;;;;;28.07;22.60;99717.19;5064239;28;1151;-21
2023/01/17 04:53:51;;;;;;;;;;;;;;;27.60;22.93;99710.06;5070096;28;1971;-21
2023/01/17 04:56:16;;;;;;;;;;;;;;;25.74;25.23;99718.22;5068842;28;1283;-21
2023/01/17 04:58:41;;;;;;;;;;;;;;;23.53;28.16;99721.91;5072922;28;1126;-21
2023/01/17 05:01:07;;;;;;;;;;;;;;;25.75;25.85;99721.75;5075155;28;1303;-21
2023/01/17 05:03:32;;;;;;;;;;;;;;;27.65;22.93;99720.22;5076131;28;996;-21
2023/01/17 05:05:57;;;;;;;;;;;;;;;26.39;23.29;99721.63;5076511;28;1032;-21
2023/01/17 05:08:23;;;;;;;;;;;;;;;24.94;25.75;99717.41;5076663;28;991;-21
2023/01/17 05:10:48;;;;;;;;;;;;;;;25.83;25.19;99704.56;5076452;28;1146;-22
2023/01/17 05:13:13;;;;;;;;;;;;;;;26.61;23.14;99708.00;5076797;28;1909;-21
2023/01/17 05:15:38;;;;;;;;;;;;;;;23.93;26.88;99713.59;5075961;28;1130;-22
2023/01/17 05:18:07;;;;;;;;;;;;;;;24.19;26.86;99698.88;5076148;28;1170;-22
2023/01/17 05:20:33;;;;;;;;;;;;;;;23.71;27.30;99705.44;5076134;28;1201;-21
2023/01/17 05:22:58;;;;;;;;;;;;;;;23.77;27.37;99699.34;5069249;28;1339;-21
2023/01/17 05:25:23;;;;;;;;;;;;;;;23.58;27.77;99698.03;5075549;28;1039;-21
2023/01/17 05:27:49;;;;;;;;;;;;;;;23.46;28.00;99703.03;5074603;28;1100;-22
2023/01/17 05:30:15;;;;;;;;;;;;;;;23.49;28.01;99713.41;5075520;28;1266;-20
2023/01/17 05:32:40;;;;;;;;;;;;;;;23.47;28.05;99720.81;5065061;28;1988;-21
2023/01/17 05:35:06;;;;;;;;;;;;;;;23.41;28.17;99724.22;5076037;28;911;-20
2023/01/17 05:37:31;;;;;;;;;;;;;;;23.17;28.42;99723.41;5075969;28;1084;-20
2023/01/17 05:39:56;;;;;;;;;;;;;;;23.08;28.72;99738.75;5076014;28;1237;-20
2023/01/17 05:42:21;;;;;;;;;;;;;;;22.83;28.88;99745.13;5075840;28;1055;-20
2023/01/17 05:44:47;;;;;;;;;;;;;;;22.70;29.59;99736.84;5076249;28;1122;-19
2023/01/17 05:47:12;;;;;;;;;;;;;;;22.86;29.57;99743.94;5075568;28;1103;-19
2023/01/17 05:49:37;;;;;;;;;;;;;;;22.85;29.71;99744.97;5075987;28;1019;-19
2023/01/17 05:52:03;;;;;;;;;;;;;;;22.84;30.19;99741.44;5075761;28;1890;-20
2023/01/17 05:54:28;;;;;;;;;;;;;;;23.01;29.81;99749.34;5075672;28;1035;-19
2023/01/17 05:56:53;;;;;;;;;;;;;;;22.73;30.11;99753.41;5077454;28;1075;-19
2023/01/17 05:59:19;;;;;;;;;;;;;;;22.81;30.13;99754.34;5074055;28;969;-19
2023/01/17 06:01:44;;;;;;;;;;;;;;;22.58;30.75;99758.66;5080014;28;1113;-20
2023/01/17 06:04:10;;;;;;;;;;;;;;;22.33;31.63;99761.47;5080144;28;1228;-20
2023/01/17 06:06:35;;;;;;;;;;;;;;;22.70;31.05;99772.53;5079972;28;1214;-19
2023/01/17 06:09:00;;;;;;;;;;;;;;;22.75;31.37;99769.31;5079155;28;1091;-19
2023/01/17 06:11:26;;;;;;;;;;;;;;;22.63;31.64;99771.56;5078966;28;1071;-19
2023/01/17 06:13:51;;;;;;;;;;;;;;;22.61;31.64;99757.50;5078346;28;1992;-19
2023/01/17 06:16:16;;;;;;;;;;;;;;;21.60;34.27;99750.81;5066314;28;1587;-20
2023/01/17 06:18:41;;;;;;;;;;;;;;;22.28;32.85;99755.81;5077157;28;1305;-20
2023/01/17 06:21:07;;;;;;;;;;;;;;;22.33;33.08;99756.13;5079971;28;1040;-20
2023/01/17 06:23:32;;;;;;;;;;;;;;;22.55;32.76;99752.81;5078375;28;1174;-20
2023/01/17 06:26:00;;;;;;;;;;;;;;;22.60;32.42;99754.00;5079888;28;1052;-20
2023/01/17 06:28:25;;;;;;;;;;;;;;;22.60;32.31;99758.50;5078957;28;1144;-20
2023/01/17 06:30:50;;;;;;;;;;;;;;;21.92;33.50;99757.09;5079001;28;1186;-20
2023/01/17 06:33:16;;;;;;;;;;;;;;;22.24;33.43;99739.25;5076860;28;1973;-20
2023/01/17 06:35:47;;;;;;;;;;;;;;;22.18;33.21;99760.53;5073833;28;1271;-20
2023/01/17 06:38:13;;;;;;;;;;;;;;;22.42;32.90;99756.91;5070468;28;1259;-19
2023/01/17 06:40:38;;;;;;;;;;;;;;;22.58;32.86;99749.78;5073583;28;1199;-20
2023/01/17 06:43:04;;;;;;;;;;;;;;;22.02;33.63;99741.66;5071891;28;1207;-19
2023/01/17 06:45:29;;;;;;;;;;;;;;;22.23;33.29;99750.97;5058763;28;1032;-20
2023/01/17 06:47:55;;;;;;;;;;;;;;;22.38;32.80;99761.78;5059344;28;885;-20
2023/01/17 06:50:20;;;;;;;;;;;;;;;22.39;33.03;99770.66;5072269;28;1082;-19
2023/01/17 06:52:52;;;;;;;;;;;;;;;23.24;32.01;99780.69;5058763;28;1902;-19
2023/01/17 06:55:18;;;;;;;;;;;;;;;23.82;30.67;99782.03;5066678;28;1098;-19
2023/01/17 06:57:43;;;;;;;;;;;;;;;24.01;30.39;99780.63;5069917;28;1318;-19
2023/01/17 07:00:09;;;;;;;;;;;;;;;24.25;30.21;99784.09;5071836;28;1065;-20
2023/01/17 07:02:34;;;;;;;;;;;;;;;24.35;30.09;99778.44;5070891;28;900;-19
2023/01/17 07:04:59;;;;;;;;;;;;;;;24.57;29.61;99781.16;5059301;28;1107;-20
2023/01/17 07:07:24;;;;;;;;;;;;;;;24.56;29.84;99774.94;5076529;28;1254;-20
2023/01/17 07:09:50;;;;;;;;;;;;;;;24.60;29.78;99785.31;5069145;28;1223;-20
2023/01/17 07:12:15;;;;;;;;;;;;;;;24.68;29.29;99785.19;5074663;28;1910;-19
2023/01/17 07:14:40;;;;;;;;;;;;;;;25.00;29.08;99791.16;5075253;28;1101;-19
2023/01/17 07:17:06;;;;;;;;;;;;;;;24.72;29.06;99782.97;5067557;28;1219;-19
2023/01/17 07:20:28;;;;;;;;;;;;;;;25.04;29.15;99795.13;5112418;27;1337;-34
2023/01/17 07:22:53;;;;;;;;;;;;;;;25.07;28.12;99799.31;5106084;28;1126;-42
2023/01/17 07:25:19;;;;;;;;;;;;;;;25.19;28.49;99795.06;5093664;28;1106;-43
2023/01/17 07:27:45;;;;;;;;;;;;;;;25.47;28.40;99800.66;5093958;28;1123;-42
2023/01/17 07:32:49;;;;;;;;;;;;;;;25.41;28.06;99805.81;5894165;22;7070;-26
2023/01/17 07:35:14;;;;;;;;;;;;;;;25.56;27.77;99804.88;5052203;28;1135;-25
2023/01/17 07:37:39;;;;;;;;;;;;;;;25.47;27.74;99801.50;5053125;28;1112;-24
2023/01/17 07:40:05;;;;;;;;;;;;;;;25.26;28.13;99795.13;5049540;28;1906;-24
2023/01/17 07:42:30;;;;;;;;;;;;;;;25.39;28.15;99798.97;5052361;28;1144;-25
2023/01/17 07:44:56;;;;;;;;;;;;;;;25.25;27.71;99801.53;5039519;28;2071;-21
2023/01/17 07:47:23;;;;;;;;;;;;;;;25.15;28.12;99804.56;5052476;28;1068;-22
2023/01/17 07:49:48;;;;;;;;;;;;;;;25.19;28.07;99794.25;5045541;28;1103;-23
2023/01/17 07:52:14;;;;;;;;;;;;;;;25.35;27.82;99800.34;5037971;28;1124;-23
2023/01/17 07:54:40;;;;;;;;;;;;;;;25.21;27.71;99802.13;5051714;28;2167;-24
2023/01/17 07:57:05;;;;;;;;;;;;;;;25.39;27.94;99799.78;5033507;28;2041;-25
2023/01/17 07:59:32;;;;;;;;;;;;;;;25.41;27.88;99802.25;5050987;28;2198;-24
2023/01/17 08:01:57;;;;;;;;;;;;;;;25.47;27.56;99796.13;5039811;28;1147;-25
2023/01/17 08:04:26;;;;;;;;;;;;;;;25.65;27.58;99790.28;5052633;28;1091;-25
2023/01/17 08:06:53;;;;;;;;;;;;;;;25.30;27.79;99788.34;5043819;28;1306;-26
2023/01/17 08:09:18;;;;;;;;;;;;;;;25.35;28.02;99790.44;5032303;28;2520;-24
2023/01/17 08:11:44;;;;;;;;;;;;;;;25.31;27.95;99781.91;5051966;28;1056;-24
2023/01/17 08:16:44;;;;;;;;;;;;;;;25.54;27.74;99786.22;5170309;23;6934;-21
2023/01/17 08:19:10;;;;;;;;;;;;;;;25.48;28.06;99781.63;5032311;28;1968;-21
2023/01/17 08:21:35;;;;;;;;;;;;;;;25.51;27.50;99777.69;5032610;28;1074;-21
2023/01/17 08:24:00;;;;;;;;;;;;;;;25.53;28.07;99787.25;5031344;28;977;-22
2023/01/17 08:26:26;;;;;;;;;;;;;;;25.37;27.79;99787.53;5032563;28;1167;-21
2023/01/17 08:28:55;;;;;;;;;;;;;;;25.55;27.67;99778.97;5032702;28;1079;-22
2023/01/17 08:31:20;;;;;;;;;;;;;;;25.63;27.53;99778.88;5022294;28;1001;-21
2023/01/17 08:33:46;;;;;;;;;;;;;;;25.69;27.38;99769.19;5019218;28;1199;-21
2023/01/17 08:36:11;;;;;;;;;;;;;;;25.73;27.50;99761.50;5019381;28;1167;-21
2023/01/17 08:38:36;;;;;;;;;;;;;;;25.93;27.41;99761.63;5018921;28;1887;-22
2023/01/17 08:41:01;;;;;;;;;;;;;;;25.95;27.42;99747.94;5007651;28;1410;-23
2023/01/17 08:43:27;;;;;;;;;;;;;;;26.13;27.17;99744.72;5018087;28;1061;-22
2023/01/17 08:45:54;;;;;;;;;;;;;;;25.92;27.32;99733.03;5018840;28;1052;-22
2023/01/17 08:48:20;;;;;;;;;;;;;;;26.16;27.15;99725.44;5019067;28;1301;-22
2023/01/17 08:50:45;;;;;;;;;;;;;;;25.98;27.16;99713.38;5019041;28;1165;-23
2023/01/17 08:53:11;;;;;;;;;;;;;;;26.09;27.07;99743.47;5018998;28;1004;-22
2023/01/17 08:55:39;;;;;;;;;;;;;;;25.96;27.35;99744.25;5018605;28;1028;-23
2023/01/17 08:58:05;;;;;;;;;;;;;;;25.88;27.51;99756.00;5019322;28;1886;-23
2023/01/17 09:00:31;;;;;;;;;;;;;;;26.08;26.96;99748.03;5018476;28;1044;-22
2023/01/17 09:02:56;;;;;;;;;;;;;;;25.86;27.31;99739.22;5019307;28;1172;-23
2023/01/17 09:05:22;;;;;;;;;;;;;;;25.83;27.29;99739.59;5018682;28;1103;-22
2023/01/17 09:07:47;;;;;;;;;;;;;;;26.29;26.83;99738.97;5013879;28;1588;-23
2023/01/17 09:10:12;;;;;;;;;;;;;;;26.26;27.15;99722.38;5017141;28;1088;-22
2023/01/17 09:12:39;;;;;;;;;;;;;;;26.25;27.01;99726.94;5018850;28;940;-23
2023/01/17 09:15:04;;;;;;;;;;;;;;;26.23;27.09;99726.31;5018164;28;1291;-23
2023/01/17 09:17:30;;;;;;;;;;;;;;;26.12;27.17;99710.72;5018778;28;1119;-23
2023/01/17 09:19:55;;;;;;;;;;;;;;;26.15;27.58;99707.63;5018966;28;1914;-23
2023/01/17 09:22:20;;;;;;;;;;;;;;;26.11;27.17;99699.09;5018435;28;1056;-23
2023/01/17 09:24:46;;;;;;;;;;;;;;;26.02;27.32;99693.09;5017561;28;1008;-23
2023/01/17 09:27:11;;;;;;;;;;;;;;;25.80;27.44;99687.81;5018548;28;1148;-24
2023/01/17 09:29:36;;;;;;;;;;;;;;;25.84;27.44;99688.22;5017807;28;1075;-23
2023/01/17 09:32:02;;;;;;;;;;;;;;;25.86;27.48;99679.97;5018473;28;1040;-23
2023/01/17 09:34:27;;;;;;;;;;;;;;;26.07;27.26;99672.75;5016433;28;1116;-24
2023/01/17 09:36:52;;;;;;;;;;;;;;;26.12;27.39;99667.59;5017287;28;1056;-22
2023/01/17 09:39:18;;;;;;;;;;;;;;;26.29;27.04;99689.63;5017255;28;1902;-23
2023/01/17 09:41:46;;;;;;;;;;;;;;;26.29;26.88;99687.75;5017247;28;1453;-23
2023/01/17 09:44:28;;;;;;;;;;;;;;;26.04;27.38;99687.50;5017553;28;1112;-23
2023/01/17 09:47:10;;;;;;;;;;;;;;;26.03;27.53;99672.34;5015703;28;1164;-23
2023/01/17 09:49:40;;;;;;;;;;;;;;;26.11;27.49;99685.63;5008200;28;1184;-23
2023/01/17 09:52:06;;;;;;;;;;;;;;;26.07;27.22;99687.09;5013741;28;902;-23
2023/01/17 09:54:32;;;;;;;;;;;;;;;26.25;27.25;99686.50;5005551;28;895;-21
2023/01/17 09:56:57;;;;;;;;;;;;;;;25.65;26.57;99679.00;5017397;28;1152;-21
2023/01/17 09:59:29;;;;;;;;;;;;;;;25.07;27.12;99678.22;5017296;28;1969;-20
2023/01/17 10:02:00;;;;;;;;;;;;;;;25.54;27.44;99677.69;5017010;28;846;-21
2023/01/17 10:04:44;;;;;;;;;;;;;;;25.16;28.19;99671.66;5018430;28;1144;-20
2023/01/17 10:07:10;;;;;;;;;;;;;;;24.65;28.22;99684.25;5017287;28;1076;-21
2023/01/17 10:09:36;;;;;;;;;;;;;;;24.80;29.24;99683.34;5014983;28;1283;-20
2023/01/17 10:12:19;;;;;;;;;;;;;;;24.72;30.06;99678.09;5017377;28;1135;-22
2023/01/17 10:14:48;;;;;;;;;;;;;;;24.57;30.16;99685.19;5010060;28;1060;-19
2023/01/17 10:17:36;;;;;;;;;;;;;;;24.50;28.75;99681.63;5006222;28;1244;-21
2023/01/17 10:20:23;;;;;;;;;;;;;;;24.30;29.96;99674.19;5001386;28;1923;-23
2023/01/17 10:22:53;;;;;;;;;;;;;;;24.33;30.30;99670.28;5012137;28;1283;-20
2023/01/17 10:25:21;;;;;;;;;;;;;;;24.34;30.17;99671.91;5011595;28;1247;-21
2023/01/17 10:27:57;;;;;;;;;;;;;;;24.20;30.53;99670.97;5013350;28;1428;-21
2023/01/17 10:30:23;;;;;;;;;;;;;;;24.21;30.56;99665.41;5014292;28;1188;-22
2023/01/17 10:32:48;;;;;;;;;;;;;;;24.49;30.04;99642.31;5011064;28;1249;-22
2023/01/17 10:35:32;;;;;;;;;;;;;;;24.46;30.21;99651.59;5015307;28;1276;-23
2023/01/17 10:37:57;;;;;;;;;;;;;;;24.29;30.33;99647.50;5011376;28;1057;-24
2023/01/17 10:40:41;;;;;;;;;;;;;;;24.70;29.82;99644.16;5014295;28;1923;-22
2023/01/17 10:43:30;;;;;;;;;;;;;;;24.54;29.99;99647.13;5005423;28;1148;-21
2023/01/17 10:45:55;;;;;;;;;;;;;;;24.52;29.43;99654.53;5002257;28;1343;-20
2023/01/17 10:48:37;;;;;;;;;;;;;;;24.59;28.76;99644.66;5012042;28;1162;-21
2023/01/17 10:51:25;;;;;;;;;;;;;;;24.59;27.73;99647.34;5004311;28;1080;-21
2023/01/17 10:54:09;;;;;;;;;;;;;;;24.80;28.31;99641.16;5007458;28;1061;-20
2023/01/17 10:56:34;;;;;;;;;;;;;;;25.18;28.24;99637.31;5009835;28;1286;-21
2023/01/17 10:59:30;;;;;;;;;;;;;;;25.35;27.42;99637.00;5008962;28;1907;-20
2023/01/17 11:01:56;;;;;;;;;;;;;;;25.45;27.14;99639.31;5001630;28;1255;-21
2023/01/17 11:04:21;;;;;;;;;;;;;;;25.75;27.31;99640.94;5017116;28;1152;-23
2023/01/17 11:06:48;;;;;;;;;;;;;;;25.07;27.92;99635.16;5016058;28;1069;-19
2023/01/17 11:09:13;;;;;;;;;;;;;;;25.02;28.37;99638.44;5015009;28;1300;-20
2023/01/17 11:11:49;;;;;;;;;;;;;;;24.93;28.89;99626.16;5016398;28;1324;-19
2023/01/17 11:14:17;;;;;;;;;;;;;;;25.13;29.19;99623.59;5013015;28;994;-21
2023/01/17 11:16:42;;;;;;;;;;;;;;;25.25;29.37;99626.59;5018167;28;1256;-21
2023/01/17 11:19:15;;;;;;;;;;;;;;;25.33;28.86;99617.50;5016493;28;1910;-20
2023/01/17 11:21:48;;;;;;;;;;;;;;;25.27;29.37;99612.94;5014210;28;1144;-21
2023/01/17 11:24:14;;;;;;;;;;;;;;;24.95;29.18;99621.41;5008735;28;1263;-21
2023/01/17 11:26:45;;;;;;;;;;;;;;;24.62;29.77;99612.03;5014118;28;1065;-21
2023/01/17 11:29:16;;;;;;;;;;;;;;;24.91;29.69;99628.19;5014829;28;1052;-21
2023/01/17 11:31:41;;;;;;;;;;;;;;;24.89;29.20;99620.28;5016698;28;1032;-21
2023/01/17 11:34:13;;;;;;;;;;;;;;;24.83;29.26;99621.09;5016416;28;1052;-20
2023/01/17 11:36:38;;;;;;;;;;;;;;;24.69;29.26;99618.28;5016087;28;1148;-20
2023/01/17 11:39:15;;;;;;;;;;;;;;;24.76;29.16;99622.88;5016364;28;1957;-20
2023/01/17 11:41:41;;;;;;;;;;;;;;;24.70;29.25;99619.13;5016127;28;1245;-20
2023/01/17 11:44:25;;;;;;;;;;;;;;;24.63;29.61;99613.69;5007901;28;948;-20
2023/01/17 11:47:17;;;;;;;;;;;;;;;24.53;29.27;99611.34;5009220;28;1353;-20
2023/01/17 11:49:44;;;;;;;;;;;;;;;24.72;29.41;99611.69;5004717;28;1625;-20
2023/01/17 11:52:09;;;;;;;;;;;;;;;24.65;29.33;99614.34;5015596;28;1079;-19
2023/01/17 11:54:39;;;;;;;;;;;;;;;24.70;29.18;99608.38;5011929;28;1244;-19
2023/01/17 11:57:04;;;;;;;;;;;;;;;24.65;29.29;99613.50;5014220;28;975;-19
2023/01/17 11:59:30;;;;;;;;;;;;;;;24.56;29.24;99619.00;5020119;28;1951;-20
2023/01/17 12:02:02;;;;;;;;;;;;;;;24.66;28.91;99617.84;5014707;28;1154;-21
2023/01/17 12:04:33;;;;;;;;;;;;;;;24.92;28.83;99598.41;5016243;28;1053;-21
2023/01/17 12:07:08;;;;;;;;;;;;;;;25.36;28.21;99602.84;5019795;28;1164;-21
2023/01/17 12:09:39;;;;;;;;;;;;;;;24.99;28.17;99613.78;5018899;28;1187;-21
2023/01/17 12:15:01;;;;;;;;;;;;;;;25.39;27.87;99603.25;5015963;28;1324;-25
2023/01/17 12:17:26;;;;;;;;;;;;;;;25.26;27.87;99608.56;5008312;28;986;-22
2023/01/17 12:20:04;;;;;;;;;;;;;;;25.59;27.67;99610.59;5014897;28;1910;-22
2023/01/17 12:22:33;;;;;;;;;;;;;;;25.41;27.60;99613.81;5010078;28;1187;-22
2023/01/17 12:25:07;;;;;;;;;;;;;;;25.56;27.45;99609.13;5018082;28;1191;-22
2023/01/17 12:27:44;;;;;;;;;;;;;;;25.51;27.49;99610.75;5018210;28;1064;-23
2023/01/17 12:30:29;;;;;;;;;;;;;;;25.51;27.67;99602.66;5007907;28;1065;-22
2023/01/17 12:32:54;;;;;;;;;;;;;;;25.64;27.17;99604.66;5012615;28;1317;-22
2023/01/17 12:35:22;;;;;;;;;;;;;;;25.55;27.22;99606.66;5018213;28;1129;-23
2023/01/17 12:37:48;;;;;;;;;;;;;;;25.74;26.95;99597.00;5016775;28;1370;-22
2023/01/17 12:40:14;;;;;;;;;;;;;;;25.51;27.32;99611.59;5014639;28;1894;-22
2023/01/17 12:42:42;;;;;;;;;;;;;;;25.36;27.59;99592.88;5014106;28;1023;-22
2023/01/17 12:45:07;;;;;;;;;;;;;;;25.48;27.31;99601.22;5015032;28;1088;-22
2023/01/17 12:47:35;;;;;;;;;;;;;;;25.31;27.66;99590.78;5009752;28;1244;-22
2023/01/17 12:50:19;;;;;;;;;;;;;;;25.23;27.82;99598.19;5012986;28;1151;-20
2023/01/17 12:53:02;;;;;;;;;;;;;;;25.03;28.05;99605.13;5015131;28;1283;-22
2023/01/17 12:55:48;;;;;;;;;;;;;;;25.24;28.07;99599.88;5015000;28;1175;-22
2023/01/17 12:58:35;;;;;;;;;;;;;;;25.31;27.87;99601.56;5018453;28;1949;-24
2023/01/17 13:01:02;;;;;;;;;;;;;;;26.60;26.30;99598.44;5006987;28;1291;-24
2023/01/17 13:03:45;;;;;;;;;;;;;;;27.02;25.60;99593.66;5011457;28;1083;-25
2023/01/17 13:06:13;;;;;;;;;;;;;;;26.84;25.68;99609.63;5008498;28;1169;-25
2023/01/17 13:08:40;;;;;;;;;;;;;;;26.68;26.33;99606.31;5017787;28;1171;-25
2023/01/17 13:11:35;;;;;;;;;;;;;;;26.73;26.34;99611.91;5017308;28;1306;-25
2023/01/17 13:14:00;;;;;;;;;;;;;;;26.92;26.26;99611.28;5008429;28;1218;-23
2023/01/17 13:16:41;;;;;;;;;;;;;;;27.07;26.10;99614.63;5018397;28;1146;-23
2023/01/17 13:19:26;;;;;;;;;;;;;;;27.22;25.88;99619.78;5014691;28;1910;-24
2023/01/17 13:21:51;;;;;;;;;;;;;;;27.33;25.26;99623.69;5011488;28;1125;-24
2023/01/17 13:24:21;;;;;;;;;;;;;;;27.34;25.37;99621.81;5010429;28;1095;-24
2023/01/17 13:26:49;;;;;;;;;;;;;;;27.42;25.83;99612.66;5015100;28;1123;-23
2023/01/17 13:29:38;;;;;;;;;;;;;;;27.55;25.42;99614.47;5018731;28;1176;-24
2023/01/17 13:32:16;;;;;;;;;;;;;;;27.76;25.00;99610.66;5015492;28;1224;-24
2023/01/17 13:35:04;;;;;;;;;;;;;;;27.77;25.29;99608.81;5017763;28;936;-24
2023/01/17 13:37:39;;;;;;;;;;;;;;;27.86;25.03;99597.53;5015224;28;1093;-25
2023/01/17 13:40:20;;;;;;;;;;;;;;;27.57;25.31;99602.44;5017210;28;1906;-24
2023/01/17 13:42:45;;;;;;;;;;;;;;;27.69;25.50;99602.63;5011080;28;1240;-24
2023/01/17 13:45:18;;;;;;;;;;;;;;;27.72;25.10;99594.06;5007761;28;1081;-24
2023/01/17 13:47:43;;;;;;;;;;;;;;;27.92;25.01;99611.22;5010261;28;1147;-24
2023/01/17 13:50:47;;;;;;;;;;;;;;;28.02;25.10;99614.28;5016720;28;1160;-25
2023/01/17 13:53:27;;;;;;;;;;;;;;;28.17;24.89;99618.56;4995989;28;1285;-24
2023/01/17 13:55:57;;;;;;;;;;;;;;;27.85;25.03;99628.31;4996221;28;1204;-24
2023/01/17 13:58:29;;;;;;;;;;;;;;;27.94;25.09;99628.91;5004401;28;1898;-24
2023/01/17 14:00:54;;;;;;;;;;;;;;;28.06;24.92;99629.00;5016388;28;1256;-24
2023/01/17 14:03:38;;;;;;;;;;;;;;;28.18;24.96;99628.31;5017283;28;889;-24
2023/01/17 14:06:17;;;;;;;;;;;;;;;28.23;24.77;99629.34;5005466;28;1118;-24
2023/01/17 14:08:43;;;;;;;;;;;;;;;28.41;24.53;99630.50;5016779;28;1380;-25
2023/01/17 14:11:10;;;;;;;;;;;;;;;28.06;24.94;99639.03;5017035;28;1419;-24
2023/01/17 14:13:37;;;;;;;;;;;;;;;27.35;25.60;99637.81;5018145;28;1132;-23
2023/01/17 14:16:04;;;;;;;;;;;;;;;28.32;24.48;99637.19;5016884;28;1061;-24
2023/01/17 14:18:33;;;;;;;;;;;;;;;28.50;23.87;99647.28;5015784;28;1910;-25
2023/01/17 14:21:02;;;;;;;;;;;;;;;28.30;23.71;99642.81;5017685;28;1134;-24
2023/01/17 14:23:32;;;;;;;;;;;;;;;28.53;23.23;99643.34;5014154;28;1331;-24
2023/01/17 14:25:58;;;;;;;;;;;;;;;28.61;23.01;99645.75;5016789;28;1329;-24
2023/01/17 14:28:28;;;;;;;;;;;;;;;27.34;24.83;99635.31;5017064;28;1080;-23
2023/01/17 14:30:54;;;;;;;;;;;;;;;27.36;25.07;99634.06;5017445;28;1069;-21
2023/01/17 14:33:29;;;;;;;;;;;;;;;28.27;23.87;99640.56;5015769;28;1100;-24
2023/01/17 14:35:56;;;;;;;;;;;;;;;28.56;23.37;99635.56;5008084;28;1316;-23